KDRT/DRT METAR and TAF weather

Enter ICAO airport designator
Station Type Date Time Source
KDRT METAR 2019/04/22 18:46 UTC NOAA

KDRT 221846Z AUTO 15010KT 10SM OVC030 23/17 A2994 RMK AO2 T02330167


Station Type Date Time Source
KDRT Decoded METAR 2019/04/22 18:46 UTC NOAA

DEL RIO INTERNATIONAL AIRPORT, TX, United States (KDRT) 29-22N 100-55W 313M
Apr 22, 2019 - 02:46 PM EDT / 2019.04.22 1846 UTC
Wind: from the SSE (150 degrees) at 12 MPH (10 KT):0
Visibility: 10 mile(s):0
Sky conditions: overcast
Temperature: 73.9 F (23.3 C)
Dew Point: 62.1 F (16.7 C)
Relative Humidity: 66%
Pressure (altimeter): 29.94 in. Hg (1013 hPa)
ob: KDRT 221846Z AUTO 15010KT 10SM OVC030 23/17 A2994 RMK AO2 T02330167
cycle: 19

Station Type Date Time Source
KDRT TAF 2019/04/22 18:36 UTC NOAA

TAF KDRT 221735Z 2218/2318 13012KT P6SM OVC021
FM221900 13012KT P6SM SCT050 OVC120
FM230700 11012KT P6SM BKN015
FM231300 12011KT 6SM BR OVC007
FM231500 13010KT P6SM OVC015

Example: see airport list